sensor_id;sensor_type;location;lat;lon;timestamp;P1;durP1;ratioP1;P2;durP2;ratioP2
58992;SDS011;44782;0.000;0.000;2023-08-31T00:02:04;1.70;;;1.60;;
58992;SDS011;44782;0.000;0.000;2023-08-31T00:04:19;1.90;;;1.70;;
58992;SDS011;44782;0.000;0.000;2023-08-31T00:06:35;1.70;;;1.60;;
58992;SDS011;44782;0.000;0.000;2023-08-31T00:08:51;2.15;;;1.50;;
58992;SDS011;44782;0.000;0.000;2023-08-31T00:11:06;1.77;;;1.67;;
58992;SDS011;44782;0.000;0.000;2023-08-31T00:13:22;1.58;;;1.48;;
58992;SDS011;44782;0.000;0.000;2023-08-31T00:15:39;2.72;;;1.60;;
58992;SDS011;44782;0.000;0.000;2023-08-31T00:17:56;1.60;;;1.50;;
58992;SDS011;44782;0.000;0.000;2023-08-31T00:20:11;1.63;;;1.52;;
58992;SDS011;44782;0.000;0.000;2023-08-31T00:22:27;1.60;;;1.50;;
58992;SDS011;44782;0.000;0.000;2023-08-31T00:24:43;2.00;;;1.80;;
58992;SDS011;44782;0.000;0.000;2023-08-31T00:26:59;1.50;;;1.40;;
58992;SDS011;44782;0.000;0.000;2023-08-31T00:29:15;1.67;;;1.58;;
58992;SDS011;44782;0.000;0.000;2023-08-31T00:31:31;1.58;;;1.48;;
58992;SDS011;44782;0.000;0.000;2023-08-31T00:33:47;1.70;;;1.60;;
58992;SDS011;44782;0.000;0.000;2023-08-31T00:36:03;1.88;;;1.70;;
58992;SDS011;44782;0.000;0.000;2023-08-31T00:38:19;1.80;;;1.70;;
58992;SDS011;44782;0.000;0.000;2023-08-31T00:40:38;1.60;;;1.50;;
58992;SDS011;44782;0.000;0.000;2023-08-31T00:42:58;1.67;;;1.58;;
58992;SDS011;44782;0.000;0.000;2023-08-31T00:45:14;1.63;;;1.50;;
58992;SDS011;44782;0.000;0.000;2023-08-31T00:47:30;1.63;;;1.52;;
58992;SDS011;44782;0.000;0.000;2023-08-31T00:49:46;1.60;;;1.50;;
58992;SDS011;44782;0.000;0.000;2023-08-31T00:52:02;1.83;;;1.60;;
58992;SDS011;44782;0.000;0.000;2023-08-31T00:54:19;1.70;;;1.60;;
58992;SDS011;44782;0.000;0.000;2023-08-31T00:56:38;1.80;;;1.70;;
58992;SDS011;44782;0.000;0.000;2023-08-31T00:58:53;1.92;;;1.80;;
58992;SDS011;44782;0.000;0.000;2023-08-31T01:04:16;2.08;;;1.90;;
58992;SDS011;44782;0.000;0.000;2023-08-31T01:14:43;1.70;;;1.60;;
58992;SDS011;44782;0.000;0.000;2023-08-31T01:17:06;1.50;;;1.40;;
58992;SDS011;44782;0.000;0.000;2023-08-31T01:19:45;1.83;;;1.58;;
58992;SDS011;44782;0.000;0.000;2023-08-31T01:22:03;1.92;;;1.60;;
58992;SDS011;44782;0.000;0.000;2023-08-31T01:24:22;1.60;;;1.50;;
58992;SDS011;44782;0.000;0.000;2023-08-31T01:26:39;1.50;;;1.40;;
58992;SDS011;44782;0.000;0.000;2023-08-31T01:28:56;1.55;;;1.45;;
58992;SDS011;44782;0.000;0.000;2023-08-31T01:31:13;1.70;;;1.60;;
58992;SDS011;44782;0.000;0.000;2023-08-31T01:33:30;1.90;;;1.80;;
58992;SDS011;44782;0.000;0.000;2023-08-31T01:35:46;1.70;;;1.60;;
58992;SDS011;44782;0.000;0.000;2023-08-31T01:38:07;1.50;;;1.40;;
58992;SDS011;44782;0.000;0.000;2023-08-31T01:43:04;1.70;;;1.52;;
58992;SDS011;44782;0.000;0.000;2023-08-31T01:45:22;1.52;;;1.42;;
58992;SDS011;44782;0.000;0.000;2023-08-31T01:47:40;1.92;;;1.65;;
58992;SDS011;44782;0.000;0.000;2023-08-31T01:49:56;1.70;;;1.60;;
58992;SDS011;44782;0.000;0.000;2023-08-31T01:52:11;1.67;;;1.58;;
58992;SDS011;44782;0.000;0.000;2023-08-31T01:54:27;1.90;;;1.80;;
58992;SDS011;44782;0.000;0.000;2023-08-31T01:56:43;1.70;;;1.60;;
58992;SDS011;44782;0.000;0.000;2023-08-31T01:58:59;1.80;;;1.65;;
58992;SDS011;44782;0.000;0.000;2023-08-31T02:01:15;1.83;;;1.40;;
58992;SDS011;44782;0.000;0.000;2023-08-31T02:03:31;1.70;;;1.60;;
58992;SDS011;44782;0.000;0.000;2023-08-31T02:05:46;1.90;;;1.40;;
58992;SDS011;44782;0.000;0.000;2023-08-31T02:10:23;1.50;;;1.40;;
58992;SDS011;44782;0.000;0.000;2023-08-31T02:12:38;1.42;;;1.33;;
58992;SDS011;44782;0.000;0.000;2023-08-31T02:14:54;1.60;;;1.50;;
58992;SDS011;44782;0.000;0.000;2023-08-31T02:17:10;1.70;;;1.60;;
58992;SDS011;44782;0.000;0.000;2023-08-31T02:19:26;1.70;;;1.60;;
58992;SDS011;44782;0.000;0.000;2023-08-31T02:21:41;1.55;;;1.45;;
58992;SDS011;44782;0.000;0.000;2023-08-31T02:23:57;1.50;;;1.40;;
58992;SDS011;44782;0.000;0.000;2023-08-31T02:26:13;1.65;;;1.55;;
58992;SDS011;44782;0.000;0.000;2023-08-31T02:28:28;1.50;;;1.40;;
58992;SDS011;44782;0.000;0.000;2023-08-31T02:30:45;1.70;;;1.60;;
58992;SDS011;44782;0.000;0.000;2023-08-31T02:33:01;1.77;;;1.67;;
58992;SDS011;44782;0.000;0.000;2023-08-31T02:35:17;1.80;;;1.70;;
58992;SDS011;44782;0.000;0.000;2023-08-31T02:37:32;1.70;;;1.60;;
58992;SDS011;44782;0.000;0.000;2023-08-31T02:39:48;1.90;;;1.50;;
58992;SDS011;44782;0.000;0.000;2023-08-31T02:42:04;1.45;;;1.35;;
58992;SDS011;44782;0.000;0.000;2023-08-31T02:44:20;1.70;;;1.60;;
58992;SDS011;44782;0.000;0.000;2023-08-31T02:46:35;1.75;;;1.65;;
58992;SDS011;44782;0.000;0.000;2023-08-31T02:48:51;1.70;;;1.50;;
58992;SDS011;44782;0.000;0.000;2023-08-31T02:51:07;1.63;;;1.52;;
58992;SDS011;44782;0.000;0.000;2023-08-31T02:53:22;1.50;;;1.40;;
58992;SDS011;44782;0.000;0.000;2023-08-31T02:55:38;1.80;;;1.70;;
58992;SDS011;44782;0.000;0.000;2023-08-31T02:57:54;1.50;;;1.40;;
58992;SDS011;44782;0.000;0.000;2023-08-31T03:00:09;1.40;;;1.30;;
58992;SDS011;44782;0.000;0.000;2023-08-31T03:02:28;1.60;;;1.50;;
58992;SDS011;44782;0.000;0.000;2023-08-31T03:04:43;1.52;;;1.42;;
58992;SDS011;44782;0.000;0.000;2023-08-31T03:06:59;1.70;;;1.60;;
58992;SDS011;44782;0.000;0.000;2023-08-31T03:09:15;1.60;;;1.50;;
58992;SDS011;44782;0.000;0.000;2023-08-31T03:11:31;1.67;;;1.58;;
58992;SDS011;44782;0.000;0.000;2023-08-31T03:13:46;1.83;;;1.67;;
58992;SDS011;44782;0.000;0.000;2023-08-31T03:16:02;1.67;;;1.58;;
58992;SDS011;44782;0.000;0.000;2023-08-31T03:18:17;1.63;;;1.52;;
58992;SDS011;44782;0.000;0.000;2023-08-31T03:20:33;1.58;;;1.48;;
58992;SDS011;44782;0.000;0.000;2023-08-31T03:22:49;2.10;;;1.70;;
58992;SDS011;44782;0.000;0.000;2023-08-31T03:25:04;1.50;;;1.40;;
58992;SDS011;44782;0.000;0.000;2023-08-31T03:27:20;1.50;;;1.40;;
58992;SDS011;44782;0.000;0.000;2023-08-31T03:29:36;1.80;;;1.70;;
58992;SDS011;44782;0.000;0.000;2023-08-31T03:31:51;1.50;;;1.40;;
58992;SDS011;44782;0.000;0.000;2023-08-31T03:34:07;1.70;;;1.60;;
58992;SDS011;44782;0.000;0.000;2023-08-31T03:36:22;1.70;;;1.60;;
58992;SDS011;44782;0.000;0.000;2023-08-31T03:38:39;1.58;;;1.48;;
58992;SDS011;44782;0.000;0.000;2023-08-31T03:40:55;1.83;;;1.60;;
58992;SDS011;44782;0.000;0.000;2023-08-31T03:43:12;1.70;;;1.60;;
58992;SDS011;44782;0.000;0.000;2023-08-31T03:45:28;1.63;;;1.52;;
58992;SDS011;44782;0.000;0.000;2023-08-31T03:47:43;1.77;;;1.67;;
58992;SDS011;44782;0.000;0.000;2023-08-31T03:49:59;1.90;;;1.67;;
58992;SDS011;44782;0.000;0.000;2023-08-31T03:52:15;1.85;;;1.75;;
58992;SDS011;44782;0.000;0.000;2023-08-31T03:54:30;1.50;;;1.40;;
58992;SDS011;44782;0.000;0.000;2023-08-31T03:56:46;1.50;;;1.40;;
58992;SDS011;44782;0.000;0.000;2023-08-31T03:59:02;1.60;;;1.50;;
58992;SDS011;44782;0.000;0.000;2023-08-31T04:01:20;1.80;;;1.70;;
58992;SDS011;44782;0.000;0.000;2023-08-31T04:03:36;1.52;;;1.42;;
58992;SDS011;44782;0.000;0.000;2023-08-31T04:05:55;1.88;;;1.60;;
58992;SDS011;44782;0.000;0.000;2023-08-31T04:08:11;1.63;;;1.52;;
58992;SDS011;44782;0.000;0.000;2023-08-31T04:10:27;1.80;;;1.70;;
58992;SDS011;44782;0.000;0.000;2023-08-31T04:12:44;1.70;;;1.60;;
58992;SDS011;44782;0.000;0.000;2023-08-31T04:15:00;1.60;;;1.50;;
58992;SDS011;44782;0.000;0.000;2023-08-31T04:17:15;1.75;;;1.65;;
58992;SDS011;44782;0.000;0.000;2023-08-31T04:19:31;1.50;;;1.40;;
58992;SDS011;44782;0.000;0.000;2023-08-31T04:21:47;1.52;;;1.42;;
58992;SDS011;44782;0.000;0.000;2023-08-31T04:24:02;1.50;;;1.40;;
58992;SDS011;44782;0.000;0.000;2023-08-31T04:26:18;1.50;;;1.40;;
58992;SDS011;44782;0.000;0.000;2023-08-31T04:28:35;1.67;;;1.58;;
58992;SDS011;44782;0.000;0.000;2023-08-31T04:30:50;1.70;;;1.60;;
58992;SDS011;44782;0.000;0.000;2023-08-31T04:33:07;1.73;;;1.50;;
58992;SDS011;44782;0.000;0.000;2023-08-31T04:35:22;1.50;;;1.30;;
58992;SDS011;44782;0.000;0.000;2023-08-31T04:37:39;1.60;;;1.50;;
58992;SDS011;44782;0.000;0.000;2023-08-31T04:39:55;1.70;;;1.60;;
58992;SDS011;44782;0.000;0.000;2023-08-31T04:42:10;1.48;;;1.38;;
58992;SDS011;44782;0.000;0.000;2023-08-31T04:44:26;1.75;;;1.65;;
58992;SDS011;44782;0.000;0.000;2023-08-31T04:46:41;1.60;;;1.50;;
58992;SDS011;44782;0.000;0.000;2023-08-31T04:48:57;1.45;;;1.35;;
58992;SDS011;44782;0.000;0.000;2023-08-31T04:51:29;1.50;;;1.40;;
58992;SDS011;44782;0.000;0.000;2023-08-31T04:53:56;1.55;;;1.45;;
58992;SDS011;44782;0.000;0.000;2023-08-31T04:56:12;1.83;;;1.73;;
58992;SDS011;44782;0.000;0.000;2023-08-31T04:58:27;1.50;;;1.40;;
58992;SDS011;44782;0.000;0.000;2023-08-31T05:00:43;1.63;;;1.52;;
58992;SDS011;44782;0.000;0.000;2023-08-31T05:02:59;1.50;;;1.40;;
58992;SDS011;44782;0.000;0.000;2023-08-31T05:05:15;1.60;;;1.50;;
58992;SDS011;44782;0.000;0.000;2023-08-31T05:07:30;1.60;;;1.50;;
58992;SDS011;44782;0.000;0.000;2023-08-31T05:09:46;1.65;;;1.55;;
58992;SDS011;44782;0.000;0.000;2023-08-31T05:12:02;1.40;;;1.30;;
58992;SDS011;44782;0.000;0.000;2023-08-31T05:14:18;1.80;;;1.70;;
58992;SDS011;44782;0.000;0.000;2023-08-31T05:16:33;1.70;;;1.60;;
58992;SDS011;44782;0.000;0.000;2023-08-31T05:18:49;1.80;;;1.70;;
58992;SDS011;44782;0.000;0.000;2023-08-31T05:21:05;1.77;;;1.67;;
58992;SDS011;44782;0.000;0.000;2023-08-31T05:23:21;1.70;;;1.60;;
58992;SDS011;44782;0.000;0.000;2023-08-31T05:25:41;1.63;;;1.52;;
58992;SDS011;44782;0.000;0.000;2023-08-31T05:27:59;1.70;;;1.60;;
58992;SDS011;44782;0.000;0.000;2023-08-31T05:30:15;1.52;;;1.42;;
58992;SDS011;44782;0.000;0.000;2023-08-31T05:32:31;1.50;;;1.40;;
58992;SDS011;44782;0.000;0.000;2023-08-31T05:34:46;1.60;;;1.50;;
58992;SDS011;44782;0.000;0.000;2023-08-31T05:37:02;1.60;;;1.50;;
58992;SDS011;44782;0.000;0.000;2023-08-31T05:39:19;1.70;;;1.60;;
58992;SDS011;44782;0.000;0.000;2023-08-31T05:41:36;1.80;;;1.70;;
58992;SDS011;44782;0.000;0.000;2023-08-31T05:43:55;1.70;;;1.60;;
58992;SDS011;44782;0.000;0.000;2023-08-31T05:46:11;1.58;;;1.38;;
58992;SDS011;44782;0.000;0.000;2023-08-31T05:48:27;1.50;;;1.40;;
58992;SDS011;44782;0.000;0.000;2023-08-31T05:50:42;1.50;;;1.40;;
58992;SDS011;44782;0.000;0.000;2023-08-31T05:52:58;1.70;;;1.60;;
58992;SDS011;44782;0.000;0.000;2023-08-31T05:55:14;2.10;;;1.55;;
58992;SDS011;44782;0.000;0.000;2023-08-31T05:57:29;2.10;;;1.60;;
58992;SDS011;44782;0.000;0.000;2023-08-31T05:59:45;2.05;;;1.85;;
58992;SDS011;44782;0.000;0.000;2023-08-31T06:02:01;2.03;;;1.73;;
58992;SDS011;44782;0.000;0.000;2023-08-31T06:04:18;1.95;;;1.80;;
58992;SDS011;44782;0.000;0.000;2023-08-31T06:06:34;2.40;;;1.80;;
58992;SDS011;44782;0.000;0.000;2023-08-31T06:08:49;1.77;;;1.50;;
58992;SDS011;44782;0.000;0.000;2023-08-31T06:11:05;2.60;;;1.90;;
58992;SDS011;44782;0.000;0.000;2023-08-31T06:13:21;1.70;;;1.60;;
58992;SDS011;44782;0.000;0.000;2023-08-31T06:15:37;1.83;;;1.70;;
58992;SDS011;44782;0.000;0.000;2023-08-31T06:17:52;2.70;;;1.80;;
58992;SDS011;44782;0.000;0.000;2023-08-31T06:20:08;2.35;;;1.85;;
58992;SDS011;44782;0.000;0.000;2023-08-31T06:22:24;2.30;;;1.67;;
58992;SDS011;44782;0.000;0.000;2023-08-31T06:24:40;2.17;;;1.98;;
58992;SDS011;44782;0.000;0.000;2023-08-31T06:26:57;2.67;;;1.80;;
58992;SDS011;44782;0.000;0.000;2023-08-31T06:29:12;3.22;;;1.85;;
58992;SDS011;44782;0.000;0.000;2023-08-31T06:31:29;1.70;;;1.60;;
58992;SDS011;44782;0.000;0.000;2023-08-31T06:33:44;2.50;;;1.67;;
58992;SDS011;44782;0.000;0.000;2023-08-31T06:36:00;2.90;;;1.73;;
58992;SDS011;44782;0.000;0.000;2023-08-31T06:38:16;3.60;;;2.00;;
58992;SDS011;44782;0.000;0.000;2023-08-31T06:40:31;2.33;;;1.77;;
58992;SDS011;44782;0.000;0.000;2023-08-31T06:42:48;2.90;;;1.67;;
58992;SDS011;44782;0.000;0.000;2023-08-31T06:45:04;2.20;;;1.50;;
58992;SDS011;44782;0.000;0.000;2023-08-31T06:47:20;2.90;;;1.90;;
58992;SDS011;44782;0.000;0.000;2023-08-31T06:49:36;2.15;;;1.70;;
58992;SDS011;44782;0.000;0.000;2023-08-31T06:51:52;2.40;;;1.63;;
58992;SDS011;44782;0.000;0.000;2023-08-31T06:54:09;2.22;;;1.65;;
58992;SDS011;44782;0.000;0.000;2023-08-31T06:56:24;2.08;;;1.80;;
58992;SDS011;44782;0.000;0.000;2023-08-31T06:58:40;1.98;;;1.80;;
58992;SDS011;44782;0.000;0.000;2023-08-31T07:00:55;2.08;;;1.70;;
58992;SDS011;44782;0.000;0.000;2023-08-31T07:03:11;3.45;;;1.90;;
58992;SDS011;44782;0.000;0.000;2023-08-31T07:05:27;2.00;;;1.80;;
58992;SDS011;44782;0.000;0.000;2023-08-31T07:07:44;2.28;;;1.90;;
58992;SDS011;44782;0.000;0.000;2023-08-31T07:10:00;2.13;;;1.80;;
58992;SDS011;44782;0.000;0.000;2023-08-31T07:12:15;1.88;;;1.77;;
58992;SDS011;44782;0.000;0.000;2023-08-31T07:14:31;2.08;;;1.80;;
58992;SDS011;44782;0.000;0.000;2023-08-31T07:16:47;2.70;;;1.90;;
58992;SDS011;44782;0.000;0.000;2023-08-31T07:19:03;2.35;;;2.15;;
58992;SDS011;44782;0.000;0.000;2023-08-31T07:21:19;2.17;;;1.80;;
58992;SDS011;44782;0.000;0.000;2023-08-31T07:23:34;2.00;;;1.85;;
58992;SDS011;44782;0.000;0.000;2023-08-31T07:25:50;1.90;;;1.70;;
58992;SDS011;44782;0.000;0.000;2023-08-31T07:28:06;2.15;;;1.90;;
58992;SDS011;44782;0.000;0.000;2023-08-31T07:30:21;2.00;;;1.80;;
58992;SDS011;44782;0.000;0.000;2023-08-31T07:32:37;2.25;;;1.80;;
58992;SDS011;44782;0.000;0.000;2023-08-31T07:34:53;2.20;;;1.95;;
58992;SDS011;44782;0.000;0.000;2023-08-31T07:37:08;2.25;;;1.80;;
58992;SDS011;44782;0.000;0.000;2023-08-31T07:39:24;2.28;;;1.70;;
58992;SDS011;44782;0.000;0.000;2023-08-31T07:41:39;1.98;;;1.73;;
58992;SDS011;44782;0.000;0.000;2023-08-31T07:43:55;2.28;;;1.85;;
58992;SDS011;44782;0.000;0.000;2023-08-31T07:46:11;1.90;;;1.70;;
58992;SDS011;44782;0.000;0.000;2023-08-31T07:48:26;2.20;;;2.00;;
58992;SDS011;44782;0.000;0.000;2023-08-31T07:50:42;3.33;;;2.28;;
58992;SDS011;44782;0.000;0.000;2023-08-31T07:52:58;1.88;;;1.77;;
58992;SDS011;44782;0.000;0.000;2023-08-31T07:55:14;2.85;;;2.15;;
58992;SDS011;44782;0.000;0.000;2023-08-31T07:57:30;2.63;;;2.10;;
58992;SDS011;44782;0.000;0.000;2023-08-31T07:59:45;2.22;;;1.90;;
58992;SDS011;44782;0.000;0.000;2023-08-31T08:02:01;2.95;;;2.00;;
58992;SDS011;44782;0.000;0.000;2023-08-31T08:04:16;2.70;;;1.85;;
58992;SDS011;44782;0.000;0.000;2023-08-31T08:06:34;2.33;;;2.13;;
58992;SDS011;44782;0.000;0.000;2023-08-31T08:08:50;2.25;;;2.00;;
58992;SDS011;44782;0.000;0.000;2023-08-31T08:11:05;2.10;;;1.80;;
58992;SDS011;44782;0.000;0.000;2023-08-31T08:13:21;3.15;;;2.15;;
58992;SDS011;44782;0.000;0.000;2023-08-31T08:15:37;2.33;;;1.80;;
58992;SDS011;44782;0.000;0.000;2023-08-31T08:17:53;2.75;;;2.08;;
58992;SDS011;44782;0.000;0.000;2023-08-31T08:20:09;3.17;;;1.98;;
58992;SDS011;44782;0.000;0.000;2023-08-31T08:22:25;2.75;;;1.90;;
58992;SDS011;44782;0.000;0.000;2023-08-31T08:24:40;2.83;;;2.05;;
58992;SDS011;44782;0.000;0.000;2023-08-31T08:26:56;2.83;;;1.77;;
58992;SDS011;44782;0.000;0.000;2023-08-31T08:29:11;2.83;;;1.90;;
58992;SDS011;44782;0.000;0.000;2023-08-31T08:31:27;2.78;;;2.20;;
58992;SDS011;44782;0.000;0.000;2023-08-31T08:33:43;2.63;;;2.00;;
58992;SDS011;44782;0.000;0.000;2023-08-31T08:35:58;1.90;;;1.60;;
58992;SDS011;44782;0.000;0.000;2023-08-31T08:38:14;6.38;;;2.00;;
58992;SDS011;44782;0.000;0.000;2023-08-31T08:40:33;2.65;;;1.98;;
58992;SDS011;44782;0.000;0.000;2023-08-31T08:42:50;2.40;;;2.00;;
58992;SDS011;44782;0.000;0.000;2023-08-31T08:45:11;3.05;;;1.90;;
58992;SDS011;44782;0.000;0.000;2023-08-31T08:47:31;2.53;;;1.98;;
58992;SDS011;44782;0.000;0.000;2023-08-31T08:49:48;2.55;;;2.00;;
58992;SDS011;44782;0.000;0.000;2023-08-31T08:52:04;1.95;;;1.77;;
58992;SDS011;44782;0.000;0.000;2023-08-31T08:54:21;2.67;;;2.00;;
58992;SDS011;44782;0.000;0.000;2023-08-31T08:56:37;2.88;;;2.22;;
58992;SDS011;44782;0.000;0.000;2023-08-31T08:58:53;2.58;;;2.08;;
58992;SDS011;44782;0.000;0.000;2023-08-31T09:01:09;4.00;;;2.05;;
58992;SDS011;44782;0.000;0.000;2023-08-31T09:03:25;3.67;;;1.92;;
58992;SDS011;44782;0.000;0.000;2023-08-31T09:05:40;3.67;;;2.22;;
58992;SDS011;44782;0.000;0.000;2023-08-31T09:08:09;2.45;;;2.08;;
58992;SDS011;44782;0.000;0.000;2023-08-31T09:10:33;2.75;;;2.08;;
58992;SDS011;44782;0.000;0.000;2023-08-31T09:12:53;2.55;;;1.98;;
58992;SDS011;44782;0.000;0.000;2023-08-31T09:15:09;2.80;;;1.95;;
58992;SDS011;44782;0.000;0.000;2023-08-31T09:17:25;2.60;;;1.90;;
58992;SDS011;44782;0.000;0.000;2023-08-31T09:19:41;2.20;;;1.90;;
58992;SDS011;44782;0.000;0.000;2023-08-31T09:21:57;2.45;;;2.05;;
58992;SDS011;44782;0.000;0.000;2023-08-31T09:24:13;2.40;;;1.90;;
58992;SDS011;44782;0.000;0.000;2023-08-31T09:26:28;3.03;;;2.10;;
58992;SDS011;44782;0.000;0.000;2023-08-31T09:28:52;2.22;;;1.90;;
58992;SDS011;44782;0.000;0.000;2023-08-31T09:31:08;3.28;;;2.03;;
58992;SDS011;44782;0.000;0.000;2023-08-31T09:33:24;4.03;;;2.20;;
58992;SDS011;44782;0.000;0.000;2023-08-31T09:35:39;2.85;;;1.98;;
58992;SDS011;44782;0.000;0.000;2023-08-31T09:37:58;3.05;;;2.03;;
58992;SDS011;44782;0.000;0.000;2023-08-31T09:40:14;2.20;;;2.00;;
58992;SDS011;44782;0.000;0.000;2023-08-31T09:42:36;3.35;;;2.15;;
58992;SDS011;44782;0.000;0.000;2023-08-31T09:44:55;3.75;;;1.98;;
58992;SDS011;44782;0.000;0.000;2023-08-31T09:47:11;3.42;;;2.15;;
58992;SDS011;44782;0.000;0.000;2023-08-31T09:49:28;2.75;;;2.00;;
58992;SDS011;44782;0.000;0.000;2023-08-31T09:51:45;4.30;;;2.30;;
58992;SDS011;44782;0.000;0.000;2023-08-31T09:54:02;2.92;;;1.90;;
58992;SDS011;44782;0.000;0.000;2023-08-31T09:56:20;3.58;;;2.10;;
58992;SDS011;44782;0.000;0.000;2023-08-31T09:58:37;2.30;;;1.70;;
58992;SDS011;44782;0.000;0.000;2023-08-31T10:00:53;2.70;;;1.90;;
58992;SDS011;44782;0.000;0.000;2023-08-31T10:03:09;2.08;;;1.70;;
58992;SDS011;44782;0.000;0.000;2023-08-31T10:05:29;2.67;;;1.90;;
58992;SDS011;44782;0.000;0.000;2023-08-31T10:07:46;2.45;;;2.13;;
58992;SDS011;44782;0.000;0.000;2023-08-31T10:10:03;2.33;;;1.90;;
58992;SDS011;44782;0.000;0.000;2023-08-31T10:12:19;2.38;;;1.95;;
58992;SDS011;44782;0.000;0.000;2023-08-31T10:14:35;3.20;;;2.15;;
58992;SDS011;44782;0.000;0.000;2023-08-31T10:16:51;3.08;;;1.92;;
58992;SDS011;44782;0.000;0.000;2023-08-31T10:19:08;4.75;;;2.08;;
58992;SDS011;44782;0.000;0.000;2023-08-31T10:21:24;3.20;;;1.95;;
58992;SDS011;44782;0.000;0.000;2023-08-31T10:23:44;2.55;;;1.90;;
58992;SDS011;44782;0.000;0.000;2023-08-31T10:26:00;2.00;;;1.80;;
58992;SDS011;44782;0.000;0.000;2023-08-31T10:28:22;2.47;;;1.90;;
58992;SDS011;44782;0.000;0.000;2023-08-31T10:30:39;2.00;;;1.80;;
58992;SDS011;44782;0.000;0.000;2023-08-31T10:33:19;2.63;;;1.73;;
58992;SDS011;44782;0.000;0.000;2023-08-31T10:38:25;3.17;;;1.90;;
58992;SDS011;44782;0.000;0.000;2023-08-31T10:40:46;2.25;;;1.80;;
58992;SDS011;44782;0.000;0.000;2023-08-31T10:43:15;2.85;;;1.92;;
58992;SDS011;44782;0.000;0.000;2023-08-31T10:45:37;2.88;;;1.90;;
58992;SDS011;44782;0.000;0.000;2023-08-31T10:48:00;2.38;;;1.85;;
58992;SDS011;44782;0.000;0.000;2023-08-31T10:50:18;3.15;;;2.00;;
58992;SDS011;44782;0.000;0.000;2023-08-31T10:52:42;3.28;;;2.40;;
58992;SDS011;44782;0.000;0.000;2023-08-31T10:54:59;2.55;;;2.00;;
58992;SDS011;44782;0.000;0.000;2023-08-31T10:57:22;2.33;;;1.70;;
58992;SDS011;44782;0.000;0.000;2023-08-31T10:59:48;2.78;;;1.75;;
58992;SDS011;44782;0.000;0.000;2023-08-31T11:02:06;5.95;;;2.13;;
58992;SDS011;44782;0.000;0.000;2023-08-31T11:04:22;2.00;;;1.67;;
58992;SDS011;44782;0.000;0.000;2023-08-31T11:06:39;2.63;;;1.90;;
58992;SDS011;44782;0.000;0.000;2023-08-31T11:08:57;3.60;;;2.10;;
58992;SDS011;44782;0.000;0.000;2023-08-31T11:11:13;2.33;;;2.03;;
58992;SDS011;44782;0.000;0.000;2023-08-31T11:13:34;2.10;;;1.58;;
58992;SDS011;44782;0.000;0.000;2023-08-31T11:15:53;2.30;;;1.80;;
58992;SDS011;44782;0.000;0.000;2023-08-31T11:18:10;2.83;;;1.83;;
58992;SDS011;44782;0.000;0.000;2023-08-31T11:20:26;1.83;;;1.65;;
58992;SDS011;44782;0.000;0.000;2023-08-31T11:22:44;2.00;;;1.75;;
58992;SDS011;44782;0.000;0.000;2023-08-31T11:25:01;2.58;;;1.95;;
58992;SDS011;44782;0.000;0.000;2023-08-31T11:27:20;2.72;;;1.83;;
58992;SDS011;44782;0.000;0.000;2023-08-31T11:29:37;2.45;;;1.70;;
58992;SDS011;44782;0.000;0.000;2023-08-31T11:31:55;2.00;;;1.60;;
58992;SDS011;44782;0.000;0.000;2023-08-31T11:34:12;2.22;;;1.73;;
58992;SDS011;44782;0.000;0.000;2023-08-31T11:36:32;2.92;;;2.05;;
58992;SDS011;44782;0.000;0.000;2023-08-31T11:38:48;1.80;;;1.50;;
58992;SDS011;44782;0.000;0.000;2023-08-31T11:41:05;2.90;;;1.75;;
58992;SDS011;44782;0.000;0.000;2023-08-31T11:43:20;2.78;;;1.70;;
58992;SDS011;44782;0.000;0.000;2023-08-31T11:45:36;2.10;;;1.88;;
58992;SDS011;44782;0.000;0.000;2023-08-31T11:47:53;2.72;;;1.75;;
58992;SDS011;44782;0.000;0.000;2023-08-31T11:50:10;2.35;;;1.80;;
58992;SDS011;44782;0.000;0.000;2023-08-31T11:52:28;5.05;;;1.60;;
58992;SDS011;44782;0.000;0.000;2023-08-31T11:54:46;3.95;;;1.80;;
58992;SDS011;44782;0.000;0.000;2023-08-31T11:57:08;1.95;;;1.45;;
58992;SDS011;44782;0.000;0.000;2023-08-31T11:59:25;2.67;;;1.60;;
58992;SDS011;44782;0.000;0.000;2023-08-31T12:01:42;2.10;;;1.90;;
58992;SDS011;44782;0.000;0.000;2023-08-31T12:03:58;2.28;;;1.95;;
58992;SDS011;44782;0.000;0.000;2023-08-31T12:06:19;2.45;;;1.83;;
58992;SDS011;44782;0.000;0.000;2023-08-31T12:08:36;2.55;;;1.83;;
58992;SDS011;44782;0.000;0.000;2023-08-31T12:10:54;2.17;;;1.70;;
58992;SDS011;44782;0.000;0.000;2023-08-31T12:13:11;2.53;;;2.00;;
58992;SDS011;44782;0.000;0.000;2023-08-31T12:15:31;2.20;;;1.60;;
58992;SDS011;44782;0.000;0.000;2023-08-31T12:17:49;2.30;;;1.90;;
58992;SDS011;44782;0.000;0.000;2023-08-31T12:20:10;2.13;;;1.77;;
58992;SDS011;44782;0.000;0.000;2023-08-31T12:22:28;1.77;;;1.60;;
58992;SDS011;44782;0.000;0.000;2023-08-31T12:24:44;2.50;;;1.95;;
58992;SDS011;44782;0.000;0.000;2023-08-31T12:27:01;2.35;;;1.92;;
58992;SDS011;44782;0.000;0.000;2023-08-31T12:29:17;3.58;;;2.00;;
58992;SDS011;44782;0.000;0.000;2023-08-31T12:31:33;2.08;;;1.85;;
58992;SDS011;44782;0.000;0.000;2023-08-31T12:33:51;1.90;;;1.60;;
58992;SDS011;44782;0.000;0.000;2023-08-31T12:36:07;2.03;;;1.70;;
58992;SDS011;44782;0.000;0.000;2023-08-31T12:38:24;2.20;;;1.73;;
58992;SDS011;44782;0.000;0.000;2023-08-31T12:40:40;3.00;;;2.10;;
58992;SDS011;44782;0.000;0.000;2023-08-31T12:42:57;3.35;;;2.00;;
58992;SDS011;44782;0.000;0.000;2023-08-31T12:45:13;1.73;;;1.63;;
58992;SDS011;44782;0.000;0.000;2023-08-31T12:47:29;2.08;;;1.80;;
58992;SDS011;44782;0.000;0.000;2023-08-31T12:49:46;1.90;;;1.60;;
58992;SDS011;44782;0.000;0.000;2023-08-31T12:52:02;2.15;;;1.80;;
58992;SDS011;44782;0.000;0.000;2023-08-31T12:54:19;3.25;;;2.08;;
58992;SDS011;44782;0.000;0.000;2023-08-31T12:56:35;2.00;;;1.83;;
58992;SDS011;44782;0.000;0.000;2023-08-31T12:58:53;2.33;;;1.80;;
58992;SDS011;44782;0.000;0.000;2023-08-31T13:01:09;3.53;;;1.80;;
58992;SDS011;44782;0.000;0.000;2023-08-31T13:03:26;2.70;;;1.80;;
58992;SDS011;44782;0.000;0.000;2023-08-31T13:05:42;3.40;;;1.90;;
58992;SDS011;44782;0.000;0.000;2023-08-31T13:07:58;2.65;;;2.10;;
58992;SDS011;44782;0.000;0.000;2023-08-31T13:10:14;2.78;;;1.77;;
58992;SDS011;44782;0.000;0.000;2023-08-31T13:12:31;2.03;;;1.83;;
58992;SDS011;44782;0.000;0.000;2023-08-31T13:14:47;2.03;;;1.77;;
58992;SDS011;44782;0.000;0.000;2023-08-31T13:17:02;2.42;;;1.70;;
58992;SDS011;44782;0.000;0.000;2023-08-31T13:19:19;2.30;;;1.77;;
58992;SDS011;44782;0.000;0.000;2023-08-31T13:21:34;2.55;;;1.80;;
58992;SDS011;44782;0.000;0.000;2023-08-31T13:23:50;2.65;;;1.80;;
58992;SDS011;44782;0.000;0.000;2023-08-31T13:26:06;4.35;;;1.70;;
58992;SDS011;44782;0.000;0.000;2023-08-31T13:28:22;1.75;;;1.63;;
58992;SDS011;44782;0.000;0.000;2023-08-31T13:30:37;2.40;;;1.90;;
58992;SDS011;44782;0.000;0.000;2023-08-31T13:32:53;2.13;;;1.65;;
58992;SDS011;44782;0.000;0.000;2023-08-31T13:35:09;3.10;;;1.80;;
58992;SDS011;44782;0.000;0.000;2023-08-31T13:37:25;2.75;;;1.63;;
58992;SDS011;44782;0.000;0.000;2023-08-31T13:39:41;2.00;;;1.80;;
58992;SDS011;44782;0.000;0.000;2023-08-31T13:41:57;2.67;;;1.60;;
58992;SDS011;44782;0.000;0.000;2023-08-31T13:44:12;1.80;;;1.70;;
58992;SDS011;44782;0.000;0.000;2023-08-31T13:46:28;2.72;;;2.00;;
58992;SDS011;44782;0.000;0.000;2023-08-31T13:48:44;1.65;;;1.55;;
58992;SDS011;44782;0.000;0.000;2023-08-31T13:51:00;2.28;;;1.80;;
58992;SDS011;44782;0.000;0.000;2023-08-31T13:53:16;1.98;;;1.80;;
58992;SDS011;44782;0.000;0.000;2023-08-31T13:55:31;1.90;;;1.70;;
58992;SDS011;44782;0.000;0.000;2023-08-31T13:57:49;1.83;;;1.73;;
58992;SDS011;44782;0.000;0.000;2023-08-31T14:00:07;1.85;;;1.63;;
58992;SDS011;44782;0.000;0.000;2023-08-31T14:02:26;1.63;;;1.50;;
58992;SDS011;44782;0.000;0.000;2023-08-31T14:04:41;2.65;;;1.80;;
58992;SDS011;44782;0.000;0.000;2023-08-31T14:06:58;1.73;;;1.63;;
58992;SDS011;44782;0.000;0.000;2023-08-31T14:09:13;1.95;;;1.75;;
58992;SDS011;44782;0.000;0.000;2023-08-31T14:11:29;2.33;;;1.50;;
58992;SDS011;44782;0.000;0.000;2023-08-31T14:16:03;1.67;;;1.58;;
58992;SDS011;44782;0.000;0.000;2023-08-31T14:18:19;1.73;;;1.50;;